createdAt,value
2023-05-11T00:01:13.777Z,6.73
2023-05-11T00:03:40.644Z,7.27
2023-05-11T00:06:07.799Z,8.63
2023-05-11T00:08:34.708Z,10.13
2023-05-11T00:11:01.776Z,8.30
2023-05-11T00:13:28.972Z,8.57
2023-05-11T00:15:56.050Z,7.23
2023-05-11T00:18:23.126Z,7.43
2023-05-11T00:20:50.128Z,7.03
2023-05-11T00:23:17.151Z,7.13
2023-05-11T00:25:43.962Z,6.37
2023-05-11T00:28:10.867Z,6.60
2023-05-11T00:30:38.364Z,6.80
2023-05-11T00:33:05.368Z,6.97
2023-05-11T00:35:32.922Z,6.97
2023-05-11T00:38:00.137Z,7.00
2023-05-11T00:41:13.877Z,7.70
2023-05-11T00:43:41.230Z,7.27
2023-05-11T00:46:08.091Z,7.60
2023-05-11T00:48:35.074Z,7.07
2023-05-11T00:51:02.387Z,6.90
2023-05-11T00:53:29.559Z,6.97
2023-05-11T00:55:56.524Z,6.20
2023-05-11T00:58:23.863Z,6.30
2023-05-11T01:00:50.835Z,5.90
2023-05-11T01:03:18.018Z,6.03
2023-05-11T01:05:48.839Z,6.67
2023-05-11T01:08:18.961Z,6.00
2023-05-11T01:10:49.577Z,6.23
2023-05-11T01:13:26.923Z,5.90
2023-05-11T01:15:57.358Z,6.00
2023-05-11T01:18:28.167Z,6.00
2023-05-11T01:20:59.845Z,6.17
2023-05-11T01:23:45.883Z,6.63
2023-05-11T01:26:30.818Z,7.00
2023-05-11T01:29:16.580Z,6.53
2023-05-11T01:31:46.978Z,5.87
2023-05-11T01:34:19.436Z,6.47
2023-05-11T01:36:56.078Z,6.57
2023-05-11T01:39:32.992Z,6.80
2023-05-11T01:42:02.967Z,7.63
2023-05-11T01:44:32.528Z,6.93
2023-05-11T01:47:01.132Z,6.93
2023-05-11T01:49:28.778Z,7.10
2023-05-11T01:51:56.400Z,7.07
2023-05-11T01:54:24.117Z,7.10
2023-05-11T01:56:51.247Z,7.07
2023-05-11T01:59:19.342Z,7.10
2023-05-11T02:01:46.368Z,6.60
2023-05-11T02:04:14.658Z,7.43
2023-05-11T02:06:43.839Z,6.60
2023-05-11T02:09:12.453Z,7.10
2023-05-11T02:11:40.580Z,7.13
2023-05-11T02:14:09.370Z,7.40
2023-05-11T02:16:36.232Z,7.00
2023-05-11T02:19:04.693Z,7.07
2023-05-11T02:21:32.624Z,6.77
2023-05-11T02:24:01.723Z,6.60
2023-05-11T02:26:28.555Z,7.00
2023-05-11T02:28:55.875Z,7.10
2023-05-11T02:31:28.458Z,5.90
2023-05-11T02:34:00.376Z,5.60
2023-05-11T02:36:29.018Z,5.80
2023-05-11T02:39:02.659Z,5.03
2023-05-11T02:41:30.401Z,5.73
2023-05-11T02:44:01.641Z,6.47
2023-05-11T02:46:32.261Z,6.67
2023-05-11T02:49:01.354Z,6.37
2023-05-11T02:51:34.940Z,6.30
2023-05-11T02:54:03.083Z,5.90
2023-05-11T02:56:34.120Z,6.70
2023-05-11T02:59:01.068Z,6.13
2023-05-11T03:01:30.659Z,6.10
2023-05-11T03:03:58.513Z,6.77
2023-05-11T03:06:27.398Z,5.73
2023-05-11T03:08:54.531Z,5.10
2023-05-11T03:11:22.384Z,5.07
2023-05-11T03:13:50.492Z,5.20
2023-05-11T03:16:20.990Z,5.30
2023-05-11T03:18:49.402Z,5.30
2023-05-11T03:21:18.744Z,6.17
2023-05-11T03:23:46.191Z,5.70
2023-05-11T03:26:17.164Z,5.30
2023-05-11T03:28:45.108Z,4.83
2023-05-11T03:31:12.207Z,6.47
2023-05-11T03:33:39.121Z,5.53
2023-05-11T03:36:09.562Z,5.37
2023-05-11T03:38:36.793Z,5.80
2023-05-11T03:41:05.120Z,5.67
2023-05-11T03:43:35.270Z,5.93
2023-05-11T03:46:03.997Z,5.60
2023-05-11T03:48:32.450Z,6.47
2023-05-11T03:51:00.241Z,6.33
2023-05-11T03:53:27.215Z,6.67
2023-05-11T03:55:55.028Z,6.60
2023-05-11T03:58:22.376Z,7.10
2023-05-11T04:00:50.549Z,6.90
2023-05-11T04:03:18.205Z,7.70
2023-05-11T04:05:45.233Z,7.90
2023-05-11T04:08:13.315Z,8.10
2023-05-11T04:10:40.222Z,8.40
2023-05-11T04:13:07.188Z,8.27
2023-05-11T04:15:35.539Z,7.70
2023-05-11T04:18:03.650Z,7.13
2023-05-11T04:20:32.718Z,6.97
2023-05-11T04:22:59.551Z,7.17
2023-05-11T04:25:26.451Z,7.00
2023-05-11T04:27:53.280Z,6.40
2023-05-11T04:30:21.606Z,7.33
2023-05-11T04:32:48.873Z,7.67
2023-05-11T04:35:15.749Z,8.00
2023-05-11T04:37:42.742Z,8.13
2023-05-11T04:40:10.452Z,8.33
2023-05-11T04:42:40.568Z,8.00
2023-05-11T04:45:12.047Z,7.97
2023-05-11T04:47:39.564Z,7.83
2023-05-11T04:50:08.096Z,6.80
2023-05-11T04:52:36.081Z,5.90
2023-05-11T04:55:02.961Z,6.00
2023-05-11T04:57:29.974Z,6.50
2023-05-11T04:59:57.457Z,6.87
2023-05-11T05:02:24.367Z,7.23
2023-05-11T05:04:51.709Z,7.03
2023-05-11T05:07:18.511Z,6.33
2023-05-11T05:09:45.693Z,6.20
2023-05-11T05:12:14.750Z,6.60
2023-05-11T05:14:41.833Z,6.13
2023-05-11T05:17:08.812Z,6.20
2023-05-11T05:19:35.940Z,6.10
2023-05-11T05:22:03.769Z,6.10
2023-05-11T05:24:31.563Z,6.17
2023-05-11T05:26:58.960Z,5.50
2023-05-11T05:29:26.601Z,5.53
2023-05-11T05:31:53.936Z,7.43
2023-05-11T05:34:21.345Z,8.23
2023-05-11T05:36:48.822Z,7.73
2023-05-11T05:39:15.666Z,6.13
2023-05-11T05:41:43.138Z,6.67
2023-05-11T05:44:10.761Z,6.17
2023-05-11T05:46:38.807Z,6.60
2023-05-11T05:49:06.079Z,9.03
2023-05-11T05:51:33.942Z,8.53
2023-05-11T05:54:01.001Z,7.63
2023-05-11T05:56:28.406Z,8.13
2023-05-11T05:58:56.079Z,8.30
2023-05-11T06:01:23.615Z,8.80
2023-05-11T06:03:52.382Z,9.20
2023-05-11T06:06:19.663Z,7.77
2023-05-11T06:08:46.714Z,7.73
2023-05-11T06:11:13.588Z,8.17
2023-05-11T06:13:40.525Z,7.03
2023-05-11T06:16:07.479Z,7.33
2023-05-11T06:18:35.109Z,7.07
2023-05-11T06:21:05.383Z,7.97
2023-05-11T06:23:33.229Z,7.03
2023-05-11T06:26:00.068Z,6.63
2023-05-11T06:28:30.227Z,6.43
2023-05-11T06:31:01.112Z,6.20
2023-05-11T06:33:31.380Z,5.83
2023-05-11T06:35:59.084Z,5.70
2023-05-11T06:38:29.303Z,5.07
2023-05-11T06:40:56.710Z,5.47
2023-05-11T06:43:23.590Z,6.63
2023-05-11T06:45:53.034Z,6.00
2023-05-11T06:48:23.595Z,4.37
2023-05-11T06:50:50.575Z,4.77
2023-05-11T06:53:18.200Z,5.40
2023-05-11T06:55:45.072Z,6.50
2023-05-11T06:58:12.103Z,7.77
2023-05-11T07:00:39.207Z,7.10
2023-05-11T07:03:06.187Z,10.10
2023-05-11T07:05:33.455Z,9.03
2023-05-11T07:08:00.304Z,6.53
2023-05-11T07:10:27.198Z,4.70
2023-05-11T07:12:54.524Z,4.37
2023-05-11T07:15:21.403Z,5.03
2023-05-11T07:17:48.504Z,4.03
2023-05-11T07:20:15.556Z,4.20
2023-05-11T07:22:42.459Z,4.00
2023-05-11T07:25:10.037Z,4.77
2023-05-11T07:27:36.936Z,6.20
2023-05-11T07:30:04.338Z,6.60
2023-05-11T07:32:31.185Z,6.87
2023-05-11T07:34:58.274Z,6.77
2023-05-11T07:37:25.142Z,4.37
2023-05-11T07:39:51.978Z,4.70
2023-05-11T07:42:19.229Z,3.77
2023-05-11T07:44:46.096Z,6.67
2023-05-11T07:47:13.541Z,5.57
2023-05-11T07:49:43.790Z,5.53
2023-05-11T07:52:11.347Z,7.87
2023-05-11T07:54:39.043Z,6.70
2023-05-11T07:57:06.208Z,6.20
2023-05-11T07:59:33.071Z,6.67
2023-05-11T08:01:59.987Z,5.60
2023-05-11T08:04:27.763Z,5.77
2023-05-11T08:06:54.716Z,5.43
2023-05-11T08:09:22.324Z,5.03
2023-05-11T08:11:49.977Z,5.30
2023-05-11T08:14:17.436Z,5.17
2023-05-11T08:16:44.590Z,5.90
2023-05-11T08:19:13.191Z,5.30
2023-05-11T08:21:40.489Z,5.13
2023-05-11T08:24:07.438Z,4.90
2023-05-11T08:26:34.372Z,4.77
2023-05-11T08:29:01.294Z,4.00
2023-05-11T08:31:28.206Z,4.00
2023-05-11T08:33:55.227Z,4.00
2023-05-11T08:36:22.285Z,3.30
2023-05-11T08:38:49.195Z,3.63
2023-05-11T08:41:16.087Z,3.90
2023-05-11T08:43:43.825Z,3.23
2023-05-11T08:46:11.426Z,3.27
2023-05-11T08:48:38.280Z,2.70
2023-05-11T08:51:05.450Z,2.60
2023-05-11T08:53:32.864Z,2.37
2023-05-11T08:56:01.315Z,1.93
2023-05-11T08:58:28.394Z,1.77
2023-05-11T09:00:55.971Z,1.70
2023-05-11T09:03:23.024Z,2.03
2023-05-11T09:05:50.346Z,1.90
2023-05-11T09:08:18.355Z,1.80
2023-05-11T09:10:45.329Z,2.17
2023-05-11T09:13:12.156Z,2.27
2023-05-11T09:15:39.221Z,2.40
2023-05-11T09:18:06.283Z,2.93
2023-05-11T09:20:33.858Z,2.80
2023-05-11T09:23:00.737Z,2.70
2023-05-11T09:25:29.605Z,2.90
2023-05-11T09:27:58.172Z,2.93
2023-05-11T09:30:25.108Z,2.77
2023-05-11T09:32:51.975Z,2.93
2023-05-11T09:35:32.174Z,2.63
2023-05-11T09:38:02.772Z,2.70
2023-05-11T09:40:34.291Z,3.10
2023-05-11T09:43:02.472Z,2.90
2023-05-11T09:45:38.524Z,2.90
2023-05-11T09:48:07.010Z,3.00
2023-05-11T09:50:34.610Z,2.80
2023-05-11T09:53:01.790Z,2.77
2023-05-11T09:55:29.505Z,4.00
2023-05-11T09:57:57.214Z,3.30
2023-05-11T10:00:25.541Z,2.93
2023-05-11T10:03:06.043Z,2.90
2023-05-11T10:05:33.736Z,3.47
2023-05-11T10:08:04.334Z,3.03
2023-05-11T10:10:32.202Z,3.07
2023-05-11T10:12:59.848Z,3.53
2023-05-11T10:15:30.746Z,3.87
2023-05-11T10:17:58.507Z,3.60
2023-05-11T10:20:26.068Z,3.47
2023-05-11T10:22:56.387Z,3.90
2023-05-11T10:25:23.793Z,3.67
2023-05-11T10:27:51.190Z,3.67
2023-05-11T10:30:18.819Z,3.07
2023-05-11T10:32:49.103Z,2.83
2023-05-11T10:35:17.491Z,3.10
2023-05-11T10:37:46.682Z,2.73
2023-05-11T10:40:14.287Z,2.30
2023-05-11T10:42:59.918Z,2.73
2023-05-11T10:45:29.322Z,2.27
2023-05-11T10:48:14.854Z,2.80
2023-05-11T10:50:44.850Z,2.37
2023-05-11T10:53:33.570Z,2.70
2023-05-11T10:56:03.483Z,2.37
2023-05-11T10:58:48.639Z,2.30
2023-05-11T11:01:15.603Z,3.00
2023-05-11T11:03:42.552Z,2.87
2023-05-11T11:06:22.067Z,2.67
2023-05-11T11:08:58.291Z,3.27
2023-05-11T11:11:29.169Z,3.03
2023-05-11T11:14:01.762Z,4.50
2023-05-11T11:16:29.761Z,3.43
2023-05-11T11:19:22.868Z,6.47
2023-05-11T11:21:49.750Z,2.53
2023-05-11T11:24:35.557Z,2.93
2023-05-11T11:27:03.236Z,2.63
2023-05-11T11:29:30.638Z,3.10
2023-05-11T11:32:16.180Z,2.93
2023-05-11T11:34:44.230Z,2.90
2023-05-11T11:37:11.133Z,3.33
2023-05-11T11:39:43.960Z,3.20
2023-05-11T11:42:14.467Z,3.20
2023-05-11T11:44:42.108Z,2.93
2023-05-11T11:47:12.191Z,3.63
2023-05-11T11:49:39.796Z,3.37
2023-05-11T11:52:10.941Z,3.70
2023-05-11T11:54:38.984Z,3.33
2023-05-11T11:57:05.870Z,2.67
2023-05-11T11:59:47.201Z,2.77
2023-05-11T12:02:16.455Z,2.70
2023-05-11T12:04:47.655Z,3.40
2023-05-11T12:07:15.426Z,2.90
2023-05-11T12:09:45.445Z,2.73
2023-05-11T12:12:12.980Z,2.30
2023-05-11T12:14:42.186Z,2.83
2023-05-11T12:17:13.831Z,2.67
2023-05-11T12:19:41.541Z,2.47
2023-05-11T12:22:10.834Z,2.50
2023-05-11T12:24:41.505Z,2.40
2023-05-11T12:27:08.590Z,2.07
2023-05-11T12:29:35.531Z,2.30
2023-05-11T12:32:02.487Z,2.80
2023-05-11T12:34:29.396Z,2.10
2023-05-11T12:36:58.979Z,2.00
2023-05-11T12:39:28.264Z,2.27
2023-05-11T12:41:55.908Z,2.20
2023-05-11T12:44:24.174Z,2.03
2023-05-11T12:46:51.249Z,1.83
2023-05-11T12:49:24.856Z,1.93
2023-05-11T12:52:09.446Z,2.53
2023-05-11T12:54:40.870Z,2.30
2023-05-11T12:57:08.890Z,2.03
2023-05-11T12:59:42.206Z,1.93
2023-05-11T13:02:19.646Z,2.27
2023-05-11T13:04:47.556Z,2.23
2023-05-11T13:07:23.488Z,2.17
2023-05-11T13:10:00.365Z,2.50
2023-05-11T13:12:29.621Z,1.77
2023-05-11T13:15:08.832Z,2.20
2023-05-11T13:17:37.237Z,2.37
2023-05-11T13:20:24.674Z,2.20
2023-05-11T13:22:51.572Z,2.40
2023-05-11T13:25:19.754Z,2.43
2023-05-11T13:27:47.010Z,2.00
2023-05-11T13:30:14.274Z,1.90
2023-05-11T13:32:41.264Z,1.80
2023-05-11T13:35:08.402Z,2.30
2023-05-11T13:37:35.184Z,1.73
2023-05-11T13:40:02.937Z,1.70
2023-05-11T13:42:29.998Z,1.90
2023-05-11T13:44:56.933Z,2.10
2023-05-11T13:47:25.171Z,2.00
2023-05-11T13:49:54.215Z,1.90
2023-05-11T13:52:21.767Z,1.87
2023-05-11T13:54:49.030Z,1.70
2023-05-11T13:57:15.924Z,1.97
2023-05-11T13:59:42.820Z,1.40
2023-05-11T14:02:10.042Z,6.27
2023-05-11T14:04:37.075Z,3.30
2023-05-11T14:07:04.030Z,2.20
2023-05-11T14:09:31.130Z,4.43
2023-05-11T14:11:58.072Z,2.80
2023-05-11T14:14:24.881Z,2.70
2023-05-11T14:16:51.840Z,2.17
2023-05-11T14:19:18.729Z,1.50
2023-05-11T14:21:45.866Z,1.93
2023-05-11T14:24:12.955Z,1.73
2023-05-11T14:26:40.316Z,1.77
2023-05-11T14:29:07.659Z,2.03
2023-05-11T14:31:35.582Z,1.70
2023-05-11T14:34:03.503Z,2.00
2023-05-11T14:36:30.697Z,1.60
2023-05-11T14:38:57.652Z,2.00
2023-05-11T14:41:24.639Z,2.07
2023-05-11T14:43:51.456Z,2.03
2023-05-11T14:46:18.531Z,1.60
2023-05-11T14:48:45.530Z,1.77
2023-05-11T14:51:12.474Z,2.37
2023-05-11T14:53:39.618Z,2.27
2023-05-11T14:56:06.841Z,2.33
2023-05-11T14:58:34.073Z,2.60
2023-05-11T15:01:01.015Z,2.50
2023-05-11T15:03:28.087Z,2.53
2023-05-11T15:05:54.966Z,2.20
2023-05-11T15:08:29.677Z,2.17
2023-05-11T15:10:58.058Z,2.17
2023-05-11T15:13:24.863Z,2.50
2023-05-11T15:15:52.123Z,2.60
2023-05-11T15:18:19.343Z,2.87
2023-05-11T15:20:47.499Z,1.90
2023-05-11T15:23:17.520Z,2.77
2023-05-11T15:25:45.130Z,2.57
2023-05-11T15:28:12.422Z,2.13
2023-05-11T15:30:39.354Z,2.70
2023-05-11T15:33:06.325Z,2.57
2023-05-11T15:35:39.355Z,2.83
2023-05-11T15:38:06.661Z,2.10
2023-05-11T15:40:33.668Z,2.30
2023-05-11T15:43:00.804Z,2.03
2023-05-11T15:45:28.083Z,1.80
2023-05-11T15:47:55.153Z,2.20
2023-05-11T15:50:22.586Z,1.70
2023-05-11T15:52:49.670Z,2.63
2023-05-11T15:55:16.677Z,2.10
2023-05-11T15:57:43.566Z,2.50
2023-05-11T16:00:11.571Z,2.07
2023-05-11T16:02:38.722Z,2.30
2023-05-11T16:05:06.146Z,2.10
2023-05-11T16:07:33.220Z,2.60
2023-05-11T16:10:00.819Z,2.07
2023-05-11T16:12:27.741Z,2.77
2023-05-11T16:14:54.778Z,2.50
2023-05-11T16:17:21.829Z,2.73
2023-05-11T16:19:48.811Z,2.43
2023-05-11T16:22:15.783Z,2.13
2023-05-11T16:24:42.649Z,2.20
2023-05-11T16:27:09.546Z,2.47
2023-05-11T16:29:36.523Z,2.60
2023-05-11T16:32:03.741Z,2.00
2023-05-11T16:34:30.585Z,2.77
2023-05-11T16:36:59.148Z,2.40
2023-05-11T16:39:26.480Z,3.33
2023-05-11T16:41:53.372Z,2.30
2023-05-11T16:44:20.241Z,2.20
2023-05-11T16:46:47.670Z,2.57
2023-05-11T16:49:14.657Z,2.53
2023-05-11T16:51:42.768Z,2.50
2023-05-11T16:54:10.652Z,2.00
2023-05-11T16:56:37.586Z,8.67
2023-05-11T16:59:04.688Z,6.97
2023-05-11T17:01:32.472Z,6.87
2023-05-11T17:03:59.577Z,4.40
2023-05-11T17:06:27.680Z,5.30
2023-05-11T17:08:54.891Z,5.77
2023-05-11T17:11:21.987Z,4.60
2023-05-11T17:13:48.814Z,4.50
2023-05-11T17:16:16.075Z,5.53
2023-05-11T17:18:43.022Z,4.03
2023-05-11T17:21:10.647Z,3.30
2023-05-11T17:23:37.653Z,3.37
2023-05-11T17:26:11.168Z,6.53
2023-05-11T17:28:39.123Z,4.77
2023-05-11T17:31:10.003Z,4.50
2023-05-11T17:33:37.152Z,4.83
2023-05-11T17:36:04.626Z,3.53
2023-05-11T17:38:31.669Z,3.53
2023-05-11T17:40:59.634Z,3.93
2023-05-11T17:43:26.790Z,3.47
2023-05-11T17:45:53.628Z,2.70
2023-05-11T17:48:20.682Z,3.10
2023-05-11T17:50:47.473Z,3.13
2023-05-11T17:53:14.317Z,3.10
2023-05-11T17:55:41.860Z,6.63
2023-05-11T17:58:09.657Z,9.27
2023-05-11T18:00:39.393Z,8.27
2023-05-11T18:03:06.415Z,6.87
2023-05-11T18:05:44.522Z,18.97
2023-05-11T18:08:14.501Z,10.73
2023-05-11T18:10:41.374Z,7.20
2023-05-11T18:13:09.019Z,7.30
2023-05-11T18:15:35.952Z,9.10
2023-05-11T18:18:03.585Z,11.63
2023-05-11T18:20:31.009Z,9.43
2023-05-11T18:22:58.356Z,10.00
2023-05-11T18:25:25.341Z,8.43
2023-05-11T18:27:52.252Z,5.37
2023-05-11T18:30:19.401Z,4.30
2023-05-11T18:32:46.605Z,4.73
2023-05-11T18:35:13.482Z,5.13
2023-05-11T18:37:40.403Z,4.57
2023-05-11T18:40:07.923Z,4.07
2023-05-11T18:42:34.781Z,4.50
2023-05-11T18:45:01.908Z,4.70
2023-05-11T18:47:28.845Z,5.00
2023-05-11T18:49:57.388Z,5.23
2023-05-11T18:52:24.307Z,5.37
2023-05-11T18:54:51.165Z,4.43
2023-05-11T18:57:20.341Z,5.00
2023-05-11T18:59:50.039Z,4.63
2023-05-11T19:02:17.482Z,4.37
2023-05-11T19:04:44.290Z,5.83
2023-05-11T19:07:11.148Z,5.60
2023-05-11T19:09:38.021Z,5.50
2023-05-11T19:12:05.055Z,5.40
2023-05-11T19:14:34.977Z,6.07
2023-05-11T19:17:04.131Z,5.77
2023-05-11T19:19:31.203Z,5.33
2023-05-11T19:21:59.447Z,6.03
2023-05-11T19:24:26.452Z,5.47
2023-05-11T19:27:05.748Z,5.97
2023-05-11T19:29:35.076Z,6.33
2023-05-11T19:32:02.058Z,4.97
2023-05-11T19:34:29.082Z,5.20
2023-05-11T19:36:56.007Z,5.23
2023-05-11T19:39:23.145Z,6.93
2023-05-11T19:41:50.109Z,6.00
2023-05-11T19:44:17.252Z,4.93
2023-05-11T19:46:47.091Z,6.00
2023-05-11T19:49:15.343Z,5.27
2023-05-11T19:51:42.818Z,5.07
2023-05-11T19:54:10.481Z,5.10
2023-05-11T19:56:37.395Z,4.80
2023-05-11T19:59:04.897Z,5.30
2023-05-11T20:01:31.964Z,5.13
2023-05-11T20:03:59.730Z,4.80
2023-05-11T20:06:26.658Z,4.83
2023-05-11T20:08:54.363Z,5.20
2023-05-11T20:11:22.848Z,6.37
2023-05-11T20:13:49.818Z,5.60
2023-05-11T20:16:16.748Z,4.57
2023-05-11T20:18:43.865Z,4.97
2023-05-11T20:21:11.026Z,4.40
2023-05-11T20:23:39.419Z,4.80
2023-05-11T20:26:06.782Z,4.43
2023-05-11T20:28:33.588Z,4.83
2023-05-11T20:31:00.599Z,4.30
2023-05-11T20:35:57.655Z,4.33
2023-05-11T20:38:24.980Z,4.40
2023-05-11T20:40:56.483Z,4.60
2023-05-11T20:43:23.340Z,4.50
2023-05-11T20:45:50.173Z,4.63
2023-05-11T20:48:23.246Z,4.43
2023-05-11T20:50:56.029Z,4.70
2023-05-11T20:53:22.902Z,4.00
2023-05-11T20:55:51.136Z,4.90
2023-05-11T20:58:18.675Z,4.33
2023-05-11T21:00:45.627Z,4.83
2023-05-11T21:03:12.514Z,6.30
2023-05-11T21:05:39.550Z,4.90
2023-05-11T21:08:06.358Z,4.43
2023-05-11T21:10:33.220Z,4.67
2023-05-11T21:13:01.976Z,4.77
2023-05-11T21:15:28.912Z,4.67
2023-05-11T21:17:55.926Z,4.83
2023-05-11T21:20:22.844Z,4.53
2023-05-11T21:22:49.635Z,4.40
2023-05-11T21:25:16.657Z,4.70
2023-05-11T21:27:43.498Z,4.77
2023-05-11T21:30:10.461Z,4.87
2023-05-11T21:32:37.837Z,4.73
2023-05-11T21:35:04.781Z,4.60
2023-05-11T21:37:33.862Z,4.60
2023-05-11T21:40:00.805Z,4.77
2023-05-11T21:42:27.696Z,5.13
2023-05-11T21:44:54.510Z,5.40
2023-05-11T21:47:22.097Z,4.70
2023-05-11T21:49:50.741Z,4.90
2023-05-11T21:52:18.754Z,5.03
2023-05-11T21:54:45.613Z,5.27
2023-05-11T21:57:12.425Z,4.90
2023-05-11T21:59:39.233Z,5.17
2023-05-11T22:02:06.160Z,4.70
2023-05-11T22:04:33.125Z,5.20
2023-05-11T22:07:01.633Z,5.17
2023-05-11T22:09:29.215Z,4.43
2023-05-11T22:11:55.993Z,4.90
2023-05-11T22:14:24.496Z,5.53
2023-05-11T22:16:52.320Z,5.60
2023-05-11T22:19:19.173Z,4.97
2023-05-11T22:21:45.986Z,4.53
2023-05-11T22:24:13.949Z,4.90
2023-05-11T22:26:40.729Z,4.60
2023-05-11T22:29:07.591Z,4.50
2023-05-11T22:31:34.727Z,4.77
2023-05-11T22:34:01.684Z,5.03
2023-05-11T22:36:29.022Z,5.13
2023-05-11T22:38:55.994Z,4.90
2023-05-11T22:41:22.879Z,4.60
2023-05-11T22:43:49.695Z,4.73
2023-05-11T22:46:17.692Z,5.00
2023-05-11T22:48:45.092Z,5.70
2023-05-11T22:51:12.007Z,4.57
2023-05-11T22:53:38.898Z,5.10
2023-05-11T22:56:06.514Z,4.73
2023-05-11T22:58:33.480Z,4.10
2023-05-11T23:01:00.605Z,4.70
2023-05-11T23:03:27.952Z,4.40
2023-05-11T23:05:54.960Z,4.93
2023-05-11T23:08:23.098Z,4.97
2023-05-11T23:10:50.721Z,4.80
2023-05-11T23:13:17.885Z,5.40
2023-05-11T23:15:44.769Z,4.37
2023-05-11T23:18:12.202Z,5.20
2023-05-11T23:20:39.109Z,4.77
2023-05-11T23:23:06.025Z,4.53
2023-05-11T23:25:32.893Z,4.70
2023-05-11T23:27:59.776Z,4.50
2023-05-11T23:30:26.701Z,4.60
2023-05-11T23:32:53.635Z,4.77
2023-05-11T23:35:20.659Z,5.27
2023-05-11T23:37:47.538Z,4.83
2023-05-11T23:40:15.252Z,4.90
2023-05-11T23:42:42.308Z,4.80
2023-05-11T23:45:09.257Z,5.33
2023-05-11T23:47:36.929Z,5.07
2023-05-11T23:50:03.902Z,5.03
2023-05-11T23:52:30.814Z,4.90
2023-05-11T23:54:58.141Z,4.80
2023-05-11T23:57:25.015Z,5.23
2023-05-11T23:59:51.844Z,5.07
